sensor_id;sensor_type;location;lat;lon;timestamp;P1;durP1;ratioP1;P2;durP2;ratioP2
61460;SDS011;47325;50.506;4.472;2024-02-23T00:00:06;2.80;;;0.50;;
61460;SDS011;47325;50.506;4.472;2024-02-23T00:05:53;3.60;;;0.50;;
61460;SDS011;47325;50.506;4.472;2024-02-23T00:11:38;1.30;;;0.50;;
61460;SDS011;47325;50.506;4.472;2024-02-23T00:17:26;1.70;;;0.40;;
61460;SDS011;47325;50.506;4.472;2024-02-23T00:23:19;1.30;;;0.40;;
61460;SDS011;47325;50.506;4.472;2024-02-23T00:29:12;1.60;;;0.50;;
61460;SDS011;47325;50.506;4.472;2024-02-23T00:34:57;2.10;;;0.70;;
61460;SDS011;47325;50.506;4.472;2024-02-23T00:40:50;2.10;;;0.50;;
61460;SDS011;47325;50.506;4.472;2024-02-23T00:46:34;1.40;;;0.50;;
61460;SDS011;47325;50.506;4.472;2024-02-23T00:52:29;1.70;;;0.50;;
61460;SDS011;47325;50.506;4.472;2024-02-23T00:58:17;1.60;;;0.50;;
61460;SDS011;47325;50.506;4.472;2024-02-23T01:04:03;1.30;;;0.40;;
61460;SDS011;47325;50.506;4.472;2024-02-23T01:09:47;2.30;;;0.50;;
61460;SDS011;47325;50.506;4.472;2024-02-23T01:15:33;3.20;;;0.50;;
61460;SDS011;47325;50.506;4.472;2024-02-23T01:21:26;3.60;;;0.50;;
61460;SDS011;47325;50.506;4.472;2024-02-23T01:27:11;1.20;;;0.50;;
61460;SDS011;47325;50.506;4.472;2024-02-23T01:32:58;1.90;;;0.50;;
61460;SDS011;47325;50.506;4.472;2024-02-23T01:38:49;1.20;;;0.40;;
61460;SDS011;47325;50.506;4.472;2024-02-23T01:44:33;1.80;;;0.60;;
61460;SDS011;47325;50.506;4.472;2024-02-23T01:50:25;2.00;;;0.70;;
61460;SDS011;47325;50.506;4.472;2024-02-23T01:56:18;2.40;;;0.70;;
61460;SDS011;47325;50.506;4.472;2024-02-23T02:02:06;1.40;;;0.70;;
61460;SDS011;47325;50.506;4.472;2024-02-23T02:08:04;2.70;;;0.70;;
61460;SDS011;47325;50.506;4.472;2024-02-23T02:13:51;1.70;;;0.50;;
61460;SDS011;47325;50.506;4.472;2024-02-23T02:19:36;3.00;;;0.60;;
61460;SDS011;47325;50.506;4.472;2024-02-23T02:25:22;1.70;;;0.70;;
61460;SDS011;47325;50.506;4.472;2024-02-23T02:31:09;2.30;;;0.60;;
61460;SDS011;47325;50.506;4.472;2024-02-23T02:37:01;2.80;;;0.70;;
61460;SDS011;47325;50.506;4.472;2024-02-23T02:42:53;2.90;;;0.80;;
61460;SDS011;47325;50.506;4.472;2024-02-23T02:48:39;4.30;;;0.80;;
61460;SDS011;47325;50.506;4.472;2024-02-23T02:54:25;2.70;;;0.60;;
61460;SDS011;47325;50.506;4.472;2024-02-23T03:00:16;3.10;;;0.70;;
61460;SDS011;47325;50.506;4.472;2024-02-23T03:06:07;2.90;;;0.60;;
61460;SDS011;47325;50.506;4.472;2024-02-23T03:11:52;2.80;;;0.60;;
61460;SDS011;47325;50.506;4.472;2024-02-23T03:17:45;2.50;;;0.60;;
61460;SDS011;47325;50.506;4.472;2024-02-23T03:23:31;4.60;;;0.90;;
61460;SDS011;47325;50.506;4.472;2024-02-23T03:29:22;4.40;;;0.80;;
61460;SDS011;47325;50.506;4.472;2024-02-23T03:35:13;2.60;;;0.90;;
61460;SDS011;47325;50.506;4.472;2024-02-23T03:40:58;3.00;;;0.60;;
61460;SDS011;47325;50.506;4.472;2024-02-23T03:46:49;3.80;;;0.70;;
61460;SDS011;47325;50.506;4.472;2024-02-23T03:52:38;3.80;;;0.80;;
61460;SDS011;47325;50.506;4.472;2024-02-23T03:58:24;2.80;;;0.90;;
61460;SDS011;47325;50.506;4.472;2024-02-23T04:04:12;3.90;;;0.90;;
61460;SDS011;47325;50.506;4.472;2024-02-23T04:09:59;4.80;;;0.70;;
61460;SDS011;47325;50.506;4.472;2024-02-23T04:15:46;2.90;;;0.60;;
61460;SDS011;47325;50.506;4.472;2024-02-23T04:21:32;3.50;;;0.80;;
61460;SDS011;47325;50.506;4.472;2024-02-23T04:27:19;3.60;;;0.90;;
61460;SDS011;47325;50.506;4.472;2024-02-23T04:33:12;3.40;;;0.70;;
61460;SDS011;47325;50.506;4.472;2024-02-23T04:38:57;2.40;;;0.80;;
61460;SDS011;47325;50.506;4.472;2024-02-23T04:44:44;4.70;;;1.10;;
61460;SDS011;47325;50.506;4.472;2024-02-23T04:50:36;3.00;;;0.90;;
61460;SDS011;47325;50.506;4.472;2024-02-23T04:56:29;3.70;;;0.90;;
61460;SDS011;47325;50.506;4.472;2024-02-23T05:02:21;3.70;;;0.90;;
61460;SDS011;47325;50.506;4.472;2024-02-23T05:08:07;6.30;;;1.00;;
61460;SDS011;47325;50.506;4.472;2024-02-23T05:13:59;3.90;;;0.90;;
61460;SDS011;47325;50.506;4.472;2024-02-23T05:19:58;6.00;;;1.00;;
61460;SDS011;47325;50.506;4.472;2024-02-23T05:25:48;2.70;;;0.80;;
61460;SDS011;47325;50.506;4.472;2024-02-23T05:37:41;4.20;;;0.90;;
61460;SDS011;47325;50.506;4.472;2024-02-23T05:43:33;4.60;;;1.10;;
61460;SDS011;47325;50.506;4.472;2024-02-23T05:49:23;5.10;;;1.20;;
61460;SDS011;47325;50.506;4.472;2024-02-23T05:55:09;4.90;;;1.30;;
61460;SDS011;47325;50.506;4.472;2024-02-23T06:01:21;3.10;;;0.90;;
61460;SDS011;47325;50.506;4.472;2024-02-23T06:07:12;5.50;;;1.00;;
61460;SDS011;47325;50.506;4.472;2024-02-23T06:13:03;2.90;;;0.90;;
61460;SDS011;47325;50.506;4.472;2024-02-23T06:19:06;5.70;;;1.00;;
61460;SDS011;47325;50.506;4.472;2024-02-23T06:24:51;2.80;;;1.00;;
61460;SDS011;47325;50.506;4.472;2024-02-23T06:30:35;5.20;;;1.00;;
61460;SDS011;47325;50.506;4.472;2024-02-23T06:36:20;4.80;;;1.20;;
61460;SDS011;47325;50.506;4.472;2024-02-23T06:42:05;2.70;;;1.00;;
61460;SDS011;47325;50.506;4.472;2024-02-23T06:47:51;4.10;;;1.00;;
61460;SDS011;47325;50.506;4.472;2024-02-23T06:53:38;2.80;;;1.00;;
61460;SDS011;47325;50.506;4.472;2024-02-23T06:59:25;6.00;;;1.00;;
61460;SDS011;47325;50.506;4.472;2024-02-23T07:05:10;4.00;;;0.80;;
61460;SDS011;47325;50.506;4.472;2024-02-23T07:10:58;4.40;;;0.80;;
61460;SDS011;47325;50.506;4.472;2024-02-23T07:16:43;2.70;;;1.00;;
61460;SDS011;47325;50.506;4.472;2024-02-23T07:22:34;3.70;;;1.10;;
61460;SDS011;47325;50.506;4.472;2024-02-23T07:28:24;4.30;;;1.30;;
61460;SDS011;47325;50.506;4.472;2024-02-23T07:34:08;5.30;;;1.10;;
61460;SDS011;47325;50.506;4.472;2024-02-23T07:39:55;5.60;;;0.90;;
61460;SDS011;47325;50.506;4.472;2024-02-23T07:45:40;4.50;;;1.40;;
61460;SDS011;47325;50.506;4.472;2024-02-23T07:51:29;6.10;;;1.00;;
61460;SDS011;47325;50.506;4.472;2024-02-23T07:57:19;3.00;;;1.00;;
61460;SDS011;47325;50.506;4.472;2024-02-23T08:03:06;2.00;;;1.00;;
61460;SDS011;47325;50.506;4.472;2024-02-23T08:08:56;4.00;;;1.20;;
61460;SDS011;47325;50.506;4.472;2024-02-23T08:14:42;4.20;;;1.30;;
61460;SDS011;47325;50.506;4.472;2024-02-23T08:20:33;5.20;;;1.10;;
61460;SDS011;47325;50.506;4.472;2024-02-23T08:26:19;4.00;;;1.10;;
61460;SDS011;47325;50.506;4.472;2024-02-23T08:32:05;2.60;;;1.00;;
61460;SDS011;47325;50.506;4.472;2024-02-23T08:37:57;1.90;;;0.90;;
61460;SDS011;47325;50.506;4.472;2024-02-23T08:43:43;4.40;;;1.30;;
61460;SDS011;47325;50.506;4.472;2024-02-23T08:49:29;5.60;;;1.10;;
61460;SDS011;47325;50.506;4.472;2024-02-23T08:55:22;5.10;;;1.20;;
61460;SDS011;47325;50.506;4.472;2024-02-23T09:01:11;3.50;;;0.90;;
61460;SDS011;47325;50.506;4.472;2024-02-23T09:13:07;4.40;;;1.10;;
61460;SDS011;47325;50.506;4.472;2024-02-23T09:25:10;7.20;;;1.20;;
61460;SDS011;47325;50.506;4.472;2024-02-23T09:31:02;2.70;;;1.00;;
61460;SDS011;47325;50.506;4.472;2024-02-23T09:36:54;4.40;;;1.10;;
61460;SDS011;47325;50.506;4.472;2024-02-23T09:42:43;5.30;;;1.10;;
61460;SDS011;47325;50.506;4.472;2024-02-23T09:48:41;5.50;;;1.00;;
61460;SDS011;47325;50.506;4.472;2024-02-23T09:54:29;3.40;;;1.30;;
61460;SDS011;47325;50.506;4.472;2024-02-23T10:00:18;3.80;;;1.00;;
61460;SDS011;47325;50.506;4.472;2024-02-23T10:06:06;2.70;;;1.00;;
61460;SDS011;47325;50.506;4.472;2024-02-23T10:11:56;3.30;;;1.30;;
61460;SDS011;47325;50.506;4.472;2024-02-23T10:17:41;4.90;;;1.00;;
61460;SDS011;47325;50.506;4.472;2024-02-23T10:23:25;2.80;;;0.90;;
61460;SDS011;47325;50.506;4.472;2024-02-23T10:29:14;4.50;;;1.00;;
61460;SDS011;47325;50.506;4.472;2024-02-23T10:35:08;3.10;;;1.00;;
61460;SDS011;47325;50.506;4.472;2024-02-23T10:40:58;3.30;;;1.00;;
61460;SDS011;47325;50.506;4.472;2024-02-23T10:46:44;2.50;;;0.90;;
61460;SDS011;47325;50.506;4.472;2024-02-23T10:52:37;4.80;;;1.10;;
61460;SDS011;47325;50.506;4.472;2024-02-23T10:58:28;3.30;;;0.90;;
61460;SDS011;47325;50.506;4.472;2024-02-23T11:04:16;3.00;;;1.00;;
61460;SDS011;47325;50.506;4.472;2024-02-23T11:10:05;2.90;;;0.90;;
61460;SDS011;47325;50.506;4.472;2024-02-23T11:15:51;5.50;;;1.20;;
61460;SDS011;47325;50.506;4.472;2024-02-23T11:21:51;3.80;;;0.90;;
61460;SDS011;47325;50.506;4.472;2024-02-23T11:27:45;4.90;;;1.10;;
61460;SDS011;47325;50.506;4.472;2024-02-23T11:33:38;2.90;;;1.00;;
61460;SDS011;47325;50.506;4.472;2024-02-23T11:39:25;3.10;;;1.20;;
61460;SDS011;47325;50.506;4.472;2024-02-23T11:45:12;3.80;;;1.10;;
61460;SDS011;47325;50.506;4.472;2024-02-23T11:50:57;3.80;;;0.90;;
61460;SDS011;47325;50.506;4.472;2024-02-23T11:56:49;3.90;;;0.90;;
61460;SDS011;47325;50.506;4.472;2024-02-23T12:02:35;5.90;;;1.00;;
61460;SDS011;47325;50.506;4.472;2024-02-23T12:08:21;4.40;;;1.00;;
61460;SDS011;47325;50.506;4.472;2024-02-23T12:14:13;3.30;;;1.10;;
61460;SDS011;47325;50.506;4.472;2024-02-23T12:20:02;5.00;;;1.20;;
61460;SDS011;47325;50.506;4.472;2024-02-23T12:25:56;3.30;;;1.00;;
61460;SDS011;47325;50.506;4.472;2024-02-23T12:31:48;3.60;;;1.30;;
61460;SDS011;47325;50.506;4.472;2024-02-23T12:37:38;2.50;;;0.90;;
61460;SDS011;47325;50.506;4.472;2024-02-23T12:43:34;4.10;;;1.20;;
61460;SDS011;47325;50.506;4.472;2024-02-23T12:49:28;4.40;;;1.00;;
61460;SDS011;47325;50.506;4.472;2024-02-23T12:55:18;3.40;;;0.90;;
61460;SDS011;47325;50.506;4.472;2024-02-23T13:01:06;4.00;;;0.90;;
61460;SDS011;47325;50.506;4.472;2024-02-23T13:06:53;3.70;;;1.00;;
61460;SDS011;47325;50.506;4.472;2024-02-23T13:12:46;1.60;;;0.90;;
61460;SDS011;47325;50.506;4.472;2024-02-23T13:18:45;6.10;;;1.10;;
61460;SDS011;47325;50.506;4.472;2024-02-23T13:24:36;3.50;;;1.00;;
61460;SDS011;47325;50.506;4.472;2024-02-23T13:30:24;4.20;;;0.90;;
61460;SDS011;47325;50.506;4.472;2024-02-23T13:36:09;3.20;;;1.00;;
61460;SDS011;47325;50.506;4.472;2024-02-23T13:41:57;3.20;;;1.00;;
61460;SDS011;47325;50.506;4.472;2024-02-23T13:47:55;2.80;;;1.00;;
61460;SDS011;47325;50.506;4.472;2024-02-23T13:53:45;5.00;;;1.00;;
61460;SDS011;47325;50.506;4.472;2024-02-23T13:59:31;3.80;;;0.90;;
61460;SDS011;47325;50.506;4.472;2024-02-23T14:05:17;2.80;;;0.90;;
61460;SDS011;47325;50.506;4.472;2024-02-23T14:11:10;2.90;;;0.80;;
61460;SDS011;47325;50.506;4.472;2024-02-23T14:17:02;2.90;;;0.80;;
61460;SDS011;47325;50.506;4.472;2024-02-23T14:22:48;2.60;;;1.10;;
61460;SDS011;47325;50.506;4.472;2024-02-23T14:28:40;2.00;;;0.90;;
61460;SDS011;47325;50.506;4.472;2024-02-23T14:34:28;3.80;;;0.90;;
61460;SDS011;47325;50.506;4.472;2024-02-23T14:40:14;3.70;;;0.80;;
61460;SDS011;47325;50.506;4.472;2024-02-23T14:46:03;3.40;;;1.00;;
61460;SDS011;47325;50.506;4.472;2024-02-23T14:51:50;1.90;;;1.00;;
61460;SDS011;47325;50.506;4.472;2024-02-23T14:57:35;3.20;;;0.90;;
61460;SDS011;47325;50.506;4.472;2024-02-23T15:03:19;3.40;;;0.90;;
61460;SDS011;47325;50.506;4.472;2024-02-23T15:09:07;2.50;;;1.00;;
61460;SDS011;47325;50.506;4.472;2024-02-23T15:14:53;2.50;;;0.80;;
61460;SDS011;47325;50.506;4.472;2024-02-23T15:20:46;2.20;;;0.90;;
61460;SDS011;47325;50.506;4.472;2024-02-23T15:26:32;2.40;;;0.80;;
61460;SDS011;47325;50.506;4.472;2024-02-23T15:32:22;3.00;;;1.00;;
61460;SDS011;47325;50.506;4.472;2024-02-23T15:38:07;2.60;;;1.00;;
61460;SDS011;47325;50.506;4.472;2024-02-23T15:43:57;3.70;;;1.00;;
61460;SDS011;47325;50.506;4.472;2024-02-23T15:49:43;1.90;;;0.90;;
61460;SDS011;47325;50.506;4.472;2024-02-23T15:55:53;1.80;;;1.00;;
61460;SDS011;47325;50.506;4.472;2024-02-23T16:01:41;2.60;;;1.00;;
61460;SDS011;47325;50.506;4.472;2024-02-23T16:07:27;3.00;;;1.00;;
61460;SDS011;47325;50.506;4.472;2024-02-23T16:13:15;2.10;;;0.90;;
61460;SDS011;47325;50.506;4.472;2024-02-23T16:19:01;1.70;;;0.90;;
61460;SDS011;47325;50.506;4.472;2024-02-23T16:24:50;2.50;;;1.10;;
61460;SDS011;47325;50.506;4.472;2024-02-23T16:30:37;2.70;;;1.50;;
61460;SDS011;47325;50.506;4.472;2024-02-23T16:36:25;2.00;;;1.20;;
61460;SDS011;47325;50.506;4.472;2024-02-23T16:42:18;3.40;;;1.30;;
61460;SDS011;47325;50.506;4.472;2024-02-23T16:48:03;3.00;;;1.30;;
61460;SDS011;47325;50.506;4.472;2024-02-23T16:53:56;2.70;;;1.20;;
61460;SDS011;47325;50.506;4.472;2024-02-23T16:59:43;3.30;;;1.40;;
61460;SDS011;47325;50.506;4.472;2024-02-23T17:05:27;3.50;;;1.70;;
61460;SDS011;47325;50.506;4.472;2024-02-23T17:11:13;2.80;;;1.40;;
61460;SDS011;47325;50.506;4.472;2024-02-23T17:17:02;2.60;;;1.50;;
61460;SDS011;47325;50.506;4.472;2024-02-23T17:22:53;3.30;;;1.70;;
61460;SDS011;47325;50.506;4.472;2024-02-23T17:28:44;2.70;;;1.60;;
61460;SDS011;47325;50.506;4.472;2024-02-23T17:34:33;4.30;;;1.70;;
61460;SDS011;47325;50.506;4.472;2024-02-23T17:40:22;3.60;;;1.90;;
61460;SDS011;47325;50.506;4.472;2024-02-23T17:46:08;3.80;;;2.20;;
61460;SDS011;47325;50.506;4.472;2024-02-23T17:51:56;4.10;;;2.10;;
61460;SDS011;47325;50.506;4.472;2024-02-23T17:57:41;3.70;;;2.00;;
61460;SDS011;47325;50.506;4.472;2024-02-23T18:03:27;3.80;;;2.10;;
61460;SDS011;47325;50.506;4.472;2024-02-23T18:09:14;4.30;;;2.20;;
61460;SDS011;47325;50.506;4.472;2024-02-23T18:15:02;3.50;;;2.20;;
61460;SDS011;47325;50.506;4.472;2024-02-23T18:20:49;6.10;;;2.00;;
61460;SDS011;47325;50.506;4.472;2024-02-23T18:26:38;3.30;;;2.10;;
61460;SDS011;47325;50.506;4.472;2024-02-23T18:32:27;4.10;;;2.10;;
61460;SDS011;47325;50.506;4.472;2024-02-23T18:38:14;3.80;;;2.30;;
61460;SDS011;47325;50.506;4.472;2024-02-23T18:44:03;3.60;;;2.10;;
61460;SDS011;47325;50.506;4.472;2024-02-23T18:49:50;3.20;;;2.00;;
61460;SDS011;47325;50.506;4.472;2024-02-23T18:55:42;3.40;;;1.90;;
61460;SDS011;47325;50.506;4.472;2024-02-23T19:01:30;4.20;;;1.90;;
61460;SDS011;47325;50.506;4.472;2024-02-23T19:07:18;2.90;;;1.80;;
61460;SDS011;47325;50.506;4.472;2024-02-23T19:13:05;3.30;;;1.80;;
61460;SDS011;47325;50.506;4.472;2024-02-23T19:18:50;3.30;;;1.60;;
61460;SDS011;47325;50.506;4.472;2024-02-23T19:24:38;3.00;;;1.70;;
61460;SDS011;47325;50.506;4.472;2024-02-23T19:30:29;2.90;;;1.50;;
61460;SDS011;47325;50.506;4.472;2024-02-23T19:36:20;2.20;;;1.30;;
61460;SDS011;47325;50.506;4.472;2024-02-23T19:42:10;3.20;;;1.40;;
61460;SDS011;47325;50.506;4.472;2024-02-23T19:47:55;1.90;;;1.20;;
61460;SDS011;47325;50.506;4.472;2024-02-23T19:53:41;2.00;;;1.10;;
61460;SDS011;47325;50.506;4.472;2024-02-23T19:59:26;2.30;;;1.20;;
61460;SDS011;47325;50.506;4.472;2024-02-23T20:05:18;3.10;;;1.00;;
61460;SDS011;47325;50.506;4.472;2024-02-23T20:11:11;1.60;;;0.90;;
61460;SDS011;47325;50.506;4.472;2024-02-23T20:16:58;1.60;;;0.90;;
61460;SDS011;47325;50.506;4.472;2024-02-23T20:22:45;2.10;;;1.00;;
61460;SDS011;47325;50.506;4.472;2024-02-23T20:28:30;2.20;;;1.10;;
61460;SDS011;47325;50.506;4.472;2024-02-23T20:34:16;2.40;;;1.10;;
61460;SDS011;47325;50.506;4.472;2024-02-23T20:40:05;2.10;;;1.20;;
61460;SDS011;47325;50.506;4.472;2024-02-23T20:45:49;1.90;;;1.20;;
61460;SDS011;47325;50.506;4.472;2024-02-23T20:51:35;3.40;;;1.10;;
61460;SDS011;47325;50.506;4.472;2024-02-23T20:57:20;2.40;;;1.30;;
61460;SDS011;47325;50.506;4.472;2024-02-23T21:03:04;2.40;;;1.20;;
61460;SDS011;47325;50.506;4.472;2024-02-23T21:08:48;2.50;;;1.30;;
61460;SDS011;47325;50.506;4.472;2024-02-23T21:14:35;2.60;;;1.40;;
61460;SDS011;47325;50.506;4.472;2024-02-23T21:20:23;2.50;;;1.30;;
61460;SDS011;47325;50.506;4.472;2024-02-23T21:26:09;3.20;;;1.70;;
61460;SDS011;47325;50.506;4.472;2024-02-23T21:31:53;3.60;;;1.70;;
61460;SDS011;47325;50.506;4.472;2024-02-23T21:37:40;3.50;;;1.80;;
61460;SDS011;47325;50.506;4.472;2024-02-23T21:43:27;3.00;;;1.70;;
61460;SDS011;47325;50.506;4.472;2024-02-23T21:49:19;2.80;;;1.80;;
61460;SDS011;47325;50.506;4.472;2024-02-23T21:55:13;2.30;;;1.70;;
61460;SDS011;47325;50.506;4.472;2024-02-23T22:00:58;3.80;;;1.80;;
61460;SDS011;47325;50.506;4.472;2024-02-23T22:06:44;2.80;;;1.70;;
61460;SDS011;47325;50.506;4.472;2024-02-23T22:12:29;5.70;;;2.00;;
61460;SDS011;47325;50.506;4.472;2024-02-23T22:18:13;2.80;;;1.80;;
61460;SDS011;47325;50.506;4.472;2024-02-23T22:24:06;2.40;;;1.60;;
61460;SDS011;47325;50.506;4.472;2024-02-23T22:29:58;2.80;;;1.50;;
61460;SDS011;47325;50.506;4.472;2024-02-23T22:35:52;3.50;;;1.70;;
61460;SDS011;47325;50.506;4.472;2024-02-23T22:41:39;2.90;;;1.50;;
61460;SDS011;47325;50.506;4.472;2024-02-23T22:47:24;2.70;;;1.50;;
61460;SDS011;47325;50.506;4.472;2024-02-23T22:53:22;2.30;;;1.60;;
61460;SDS011;47325;50.506;4.472;2024-02-23T22:59:06;3.20;;;1.80;;
61460;SDS011;47325;50.506;4.472;2024-02-23T23:04:50;2.70;;;1.50;;
61460;SDS011;47325;50.506;4.472;2024-02-23T23:10:35;3.00;;;1.70;;
61460;SDS011;47325;50.506;4.472;2024-02-23T23:16:20;3.00;;;1.60;;
61460;SDS011;47325;50.506;4.472;2024-02-23T23:22:12;2.70;;;1.60;;
61460;SDS011;47325;50.506;4.472;2024-02-23T23:28:02;3.30;;;1.30;;
61460;SDS011;47325;50.506;4.472;2024-02-23T23:33:53;2.10;;;1.30;;
61460;SDS011;47325;50.506;4.472;2024-02-23T23:39:39;3.30;;;1.70;;
61460;SDS011;47325;50.506;4.472;2024-02-23T23:45:26;3.10;;;1.60;;
61460;SDS011;47325;50.506;4.472;2024-02-23T23:51:12;3.40;;;1.50;;
61460;SDS011;47325;50.506;4.472;2024-02-23T23:56:58;3.00;;;1.60;;
